| time (UTC) | temp C | wind direction | speed KPH | gust KPH | rain 1hr cm | rain 24hr cm | rain mn cm | humidity % | barometer mb |
| 20260905194904 | 18 | 233 | 0.0 | 0.0 | 0.00 | 0.10 | 0.10 | 64 | 1018.5 |
| 20260905194404 | 18 | 233 | 0.0 | 0.0 | 0.00 | 0.10 | 0.10 | 64 | 1018.5 |
| 20260905193904 | 18 | 233 | 0.0 | 1.6 | 0.00 | 0.10 | 0.10 | 63 | 1018.3 |
| 20260905192904 | 18 | 233 | 0.0 | 0.0 | 0.00 | 0.10 | 0.10 | 62 | 1018.3 |
| 20260905192405 | 18 | 233 | 0.0 | 3.2 | 0.00 | 0.10 | 0.10 | 62 | 1018.3 |
| 20260905191904 | 18 | 233 | 0.0 | 3.2 | 0.00 | 0.10 | 0.10 | 62 | 1018.3 |
| 20260905191404 | 18 | 233 | 0.0 | 1.6 | 0.00 | 0.10 | 0.10 | 61 | 1018.3 |
| 20260905190905 | 18 | 233 | 0.0 | 3.2 | 0.00 | 0.10 | 0.10 | 61 | 1018.3 |
| 20260905190404 | 18 | 233 | 0.0 | 3.2 | 0.00 | 0.10 | 0.10 | 60 | 1018.2 |
| 20260905185904 | 19 | 233 | 0.0 | 1.6 | 0.00 | 0.10 | 0.10 | 60 | 1018.1 |
| 20260905185404 | 19 | 233 | 0.0 | 1.6 | 0.00 | 0.10 | 0.10 | 59 | 1017.9 |
| 20260905184404 | 19 | 233 | 1.6 | 3.2 | 0.00 | 0.10 | 0.10 | 59 | 1017.8 |
| 20260905183906 | 20 | 233 | 1.6 | 3.2 | 0.00 | 0.10 | 0.10 | 58 | 1017.7 |
| 20260905183404 | 20 | 233 | 0.0 | 3.2 | 0.00 | 0.10 | 0.10 | 57 | 1017.6 |
| 20260905182904 | 20 | 233 | 0.0 | 3.2 | 0.00 | 0.10 | 0.10 | 56 | 1017.5 |
| 20260905182404 | 20 | 233 | 1.6 | 4.8 | 0.00 | 0.10 | 0.10 | 56 | 1017.4 |
| 20260905181904 | 20 | 233 | 1.6 | 4.8 | 0.00 | 0.10 | 0.10 | 55 | 1017.4 |
| 20260905181404 | 20 | 233 | 1.6 | 3.2 | 0.00 | 0.10 | 0.10 | 54 | 1017.3 |
| 20260905180405 | 20 | 233 | 1.6 | 3.2 | 0.00 | 0.10 | 0.10 | 53 | 1017.2 |
| 20260905175904 | 21 | 233 | 1.6 | 4.8 | 0.00 | 0.10 | 0.10 | 53 | 1017.1 |
| 20260905175404 | 21 | 250 | 1.6 | 4.8 | 0.00 | 0.10 | 0.10 | 52 | 1017.1 |
| 20260905174904 | 21 | 266 | 0.0 | 3.2 | 0.00 | 0.10 | 0.10 | 52 | 1017.0 |
| 20260905173905 | 21 | 262 | 1.6 | 4.8 | 0.00 | 0.10 | 0.10 | 51 | 1016.8 |
| 20260905172904 | 21 | 246 | 0.0 | 4.8 | 0.00 | 0.10 | 0.10 | 50 | 1016.7 |
| 20260905171904 | 21 | 244 | 3.2 | 8.0 | 0.00 | 0.10 | 0.10 | 49 | 1016.6 |
| 20260905171404 | 22 | 233 | 3.2 | 4.8 | 0.00 | 0.10 | 0.10 | 49 | 1016.5 |
| 20260905170904 | 22 | 229 | 3.2 | 12.9 | 0.00 | 0.10 | 0.10 | 48 | 1016.4 |
| 20260905170404 | 22 | 243 | 4.8 | 12.9 | 0.00 | 0.10 | 0.10 | 48 | 1016.3 |
| 20260905165904 | 22 | 237 | 4.8 | 12.9 | 0.00 | 0.10 | 0.10 | 47 | 1016.3 |
| 20260905165404 | 22 | 235 | 8.0 | 16.1 | 0.00 | 0.10 | 0.10 | 47 | 1016.3 |
| 20260905164404 | 22 | 238 | 3.2 | 11.3 | 0.00 | 0.10 | 0.10 | 46 | 1016.1 |
| 20260905163904 | 23 | 221 | 4.8 | 19.3 | 0.00 | 0.10 | 0.10 | 45 | 1016.1 |
| 20260905163405 | 23 | 250 | 8.0 | 19.3 | 0.00 | 0.10 | 0.10 | 45 | 1016.0 |
| 20260905162904 | 23 | 250 | 8.0 | 20.9 | 0.00 | 0.10 | 0.10 | 44 | 1016.0 |
| 20260905162405 | 23 | 251 | 6.4 | 20.9 | 0.00 | 0.10 | 0.10 | 44 | 1015.9 |
| 20260905161905 | 23 | 276 | 8.0 | 16.1 | 0.00 | 0.10 | 0.10 | 43 | 1015.8 |
| 20260905161404 | 23 | 241 | 4.8 | 16.1 | 0.00 | 0.10 | 0.10 | 43 | 1015.8 |
| 20260905160905 | 23 | 251 | 9.7 | 20.9 | 0.00 | 0.10 | 0.10 | 42 | 1015.8 |
| 20260905160404 | 24 | 233 | 4.8 | 12.9 | 0.00 | 0.10 | 0.10 | 42 | 1015.7 |
| 20260905155904 | 24 | 254 | 8.0 | 20.9 | 0.00 | 0.10 | 0.10 | 41 | 1015.6 |
| 20260905155404 | 24 | 242 | 9.7 | 24.1 | 0.00 | 0.10 | 0.10 | 41 | 1015.5 |
| 20260905154904 | 25 | 241 | 4.8 | 19.3 | 0.00 | 0.10 | 0.10 | 41 | 1015.5 |
| 20260905154404 | 25 | 264 | 9.7 | 22.5 | 0.00 | 0.10 | 0.10 | 40 | 1015.4 |
| 20260905153904 | 25 | 255 | 9.7 | 24.1 | 0.00 | 0.10 | 0.10 | 39 | 1015.4 |
| 20260905152904 | 25 | 244 | 8.0 | 19.3 | 0.00 | 0.10 | 0.10 | 40 | 1015.4 |
| 20260905152404 | 25 | 276 | 6.4 | 16.1 | 0.00 | 0.10 | 0.10 | 41 | 1015.4 |
| 20260905151904 | 25 | 256 | 8.0 | 24.1 | 0.00 | 0.10 | 0.10 | 40 | 1015.3 |
| 20260905151404 | 25 | 276 | 8.0 | 20.9 | 0.00 | 0.10 | 0.10 | 40 | 1015.3 |
| 20260905150904 | 26 | 281 | 9.7 | 22.5 | 0.00 | 0.10 | 0.10 | 39 | 1015.3 |
| 20260905150404 | 26 | 248 | 8.0 | 22.5 | 0.00 | 0.10 | 0.10 | 39 | 1015.2 |
| 20260905145905 | 26 | 246 | 9.7 | 20.9 | 0.00 | 0.10 | 0.10 | 39 | 1015.3 |
| 20260905144904 | 26 | 313 | 3.2 | 16.1 | 0.00 | 0.10 | 0.10 | 40 | 1015.2 |
| 20260905143904 | 26 | 281 | 11.3 | 19.3 | 0.00 | 0.10 | 0.10 | 39 | 1015.3 |
| 20260905143404 | 26 | 264 | 4.8 | 19.3 | 0.00 | 0.10 | 0.10 | 41 | 1015.3 |
| 20260905142904 | 26 | 248 | 8.0 | 20.9 | 0.00 | 0.10 | 0.10 | 40 | 1015.3 |
| 20260905142404 | 26 | 242 | 11.3 | 20.9 | 0.00 | 0.10 | 0.10 | 40 | 1015.3 |
| 20260905141404 | 26 | 244 | 16.1 | 35.4 | 0.00 | 0.10 | 0.10 | 40 | 1015.5 |
| 20260905140904 | 26 | 240 | 11.3 | 24.1 | 0.00 | 0.10 | 0.10 | 39 | 1015.4 |
| 20260905140406 | 26 | 263 | 8.0 | 20.9 | 0.00 | 0.10 | 0.10 | 40 | 1015.5 |
| 20260905135904 | 26 | 234 | 8.0 | 19.3 | 0.00 | 0.10 | 0.10 | 41 | 1015.5 |
| 20260905135404 | 26 | 239 | 4.8 | 25.7 | 0.00 | 0.10 | 0.10 | 40 | 1015.5 |
| 20260905134904 | 26 | 290 | 6.4 | 29.0 | 0.00 | 0.10 | 0.10 | 41 | 1015.5 |
| 20260905134404 | 26 | 249 | 6.4 | 19.3 | 0.00 | 0.10 | 0.10 | 41 | 1015.5 |
| 20260905133904 | 26 | 269 | 11.3 | 20.9 | 0.00 | 0.10 | 0.10 | 42 | 1015.5 |
| 20260905133404 | 25 | 250 | 11.3 | 25.7 | 0.00 | 0.10 | 0.10 | 42 | 1015.4 |
| 20260905132904 | 25 | 249 | 11.3 | 32.2 | 0.00 | 0.10 | 0.10 | 43 | 1015.3 |
| 20260905131404 | 25 | 237 | 9.7 | 29.0 | 0.00 | 0.10 | 0.10 | 46 | 1015.5 |
| 20260905130905 | 25 | 248 | 11.3 | 22.5 | 0.00 | 0.10 | 0.10 | 46 | 1015.5 |
| 20260905130405 | 24 | 234 | 8.0 | 24.1 | 0.00 | 0.10 | 0.10 | 48 | 1015.5 |
| 20260905125904 | 24 | 227 | 11.3 | 27.4 | 0.00 | 0.10 | 0.10 | 48 | 1015.4 |
| 20260905125404 | 24 | 262 | 8.0 | 14.5 | 0.00 | 0.10 | 0.10 | 49 | 1015.5 |
| 20260905124904 | 23 | 227 | 8.0 | 20.9 | 0.00 | 0.10 | 0.10 | 49 | 1015.4 |
| 20260905124404 | 23 | 261 | 14.5 | 27.4 | 0.00 | 0.10 | 0.10 | 48 | 1015.5 |
| 20260905123905 | 23 | 239 | 14.5 | 29.0 | 0.00 | 0.10 | 0.10 | 50 | 1015.6 |
| 20260905123404 | 23 | 249 | 12.9 | 22.5 | 0.00 | 0.10 | 0.10 | 49 | 1015.7 |
| 20260905122404 | 23 | 239 | 9.7 | 24.1 | 0.00 | 0.10 | 0.10 | 52 | 1015.7 |
| 20260905121904 | 23 | 234 | 3.2 | 19.3 | 0.00 | 0.10 | 0.10 | 54 | 1015.8 |
| 20260905120905 | 22 | 258 | 3.2 | 19.3 | 0.00 | 0.10 | 0.10 | 57 | 1015.9 |
| 20260905120404 | 22 | 230 | 8.0 | 20.9 | 0.00 | 0.10 | 0.10 | 57 | 1015.9 |
| 20260905115904 | 22 | 226 | 4.8 | 19.3 | 0.00 | 0.10 | 0.10 | 61 | 1015.9 |
| 20260905115404 | 22 | 210 | 6.4 | 16.1 | 0.00 | 0.10 | 0.10 | 59 | 1016.1 |
| 20260905114904 | 22 | 234 | 4.8 | 16.1 | 0.00 | 0.10 | 0.10 | 60 | 1016.1 |
| 20260905114404 | 22 | 277 | 6.4 | 14.5 | 0.00 | 0.10 | 0.10 | 60 | 1016.1 |
| 20260905113904 | 22 | 227 | 4.8 | 12.9 | 0.00 | 0.10 | 0.10 | 61 | 1016.2 |
| 20260905113404 | 21 | 262 | 8.0 | 14.5 | 0.00 | 0.10 | 0.10 | 62 | 1016.3 |
| 20260905112904 | 21 | 244 | 4.8 | 9.7 | 0.00 | 0.10 | 0.10 | 63 | 1016.2 |
| 20260905112405 | 21 | 241 | 4.8 | 12.9 | 0.00 | 0.10 | 0.10 | 62 | 1016.3 |
| 20260905111904 | 21 | 241 | 4.8 | 12.9 | 0.00 | 0.10 | 0.10 | 64 | 1016.3 |
| 20260905111405 | 21 | 234 | 8.0 | 19.3 | 0.00 | 0.10 | 0.10 | 64 | 1016.2 |
| 20260905110904 | 21 | 295 | 4.8 | 14.5 | 0.00 | 0.10 | 0.10 | 66 | 1016.2 |
| 20260905105905 | 20 | 222 | 4.8 | 14.5 | 0.00 | 0.10 | 0.10 | 66 | 1016.4 |
| 20260905105404 | 20 | 263 | 4.8 | 19.3 | 0.00 | 0.10 | 0.10 | 65 | 1016.5 |
| 20260905104905 | 20 | 257 | 8.0 | 19.3 | 0.00 | 0.10 | 0.10 | 66 | 1016.6 |
| 20260905104405 | 20 | 231 | 6.4 | 16.1 | 0.00 | 0.10 | 0.10 | 68 | 1016.5 |
| 20260905103904 | 20 | 241 | 4.8 | 14.5 | 0.00 | 0.10 | 0.10 | 67 | 1016.5 |
| 20260905103404 | 20 | 282 | 8.0 | 14.5 | 0.00 | 0.10 | 0.10 | 68 | 1016.6 |
| 20260905102904 | 20 | 284 | 9.7 | 19.3 | 0.00 | 0.10 | 0.10 | 67 | 1016.5 |
| 20260905102405 | 20 | 289 | 6.4 | 20.9 | 0.00 | 0.10 | 0.10 | 70 | 1016.6 |
| 20260905101904 | 20 | 284 | 3.2 | 25.7 | 0.00 | 0.10 | 0.10 | 70 | 1016.5 |
| 20260905101406 | 19 | 235 | 6.4 | 22.5 | 0.00 | 0.10 | 0.10 | 71 | 1016.5 |
| 20260905100904 | 19 | 237 | 9.7 | 19.3 | 0.00 | 0.10 | 0.10 | 72 | 1016.5 |
| 20260905100404 | 19 | 242 | 8.0 | 24.1 | 0.00 | 0.10 | 0.10 | 71 | 1016.6 |
| 20260905095904 | 19 | 243 | 9.7 | 19.3 | 0.00 | 0.10 | 0.10 | 73 | 1016.6 |
| 20260905095404 | 19 | 239 | 3.2 | 12.9 | 0.00 | 0.10 | 0.10 | 73 | 1016.6 |
| 20260905094904 | 18 | 246 | 8.0 | 16.1 | 0.00 | 0.10 | 0.10 | 72 | 1016.6 |
| 20260905094405 | 18 | 301 | 4.8 | 16.1 | 0.00 | 0.10 | 0.10 | 72 | 1016.7 |
| 20260905093404 | 18 | 281 | 3.2 | 16.1 | 0.00 | 0.10 | 0.10 | 74 | 1016.7 |
| 20260905092904 | 18 | 282 | 6.4 | 16.1 | 0.00 | 0.10 | 0.10 | 75 | 1016.7 |
| 20260905092404 | 18 | 281 | 4.8 | 11.3 | 0.00 | 0.10 | 0.10 | 76 | 1016.7 |
| 20260905091904 | 18 | 213 | 4.8 | 14.5 | 0.00 | 0.10 | 0.10 | 78 | 1016.7 |
| 20260905091404 | 18 | 240 | 8.0 | 22.5 | 0.00 | 0.10 | 0.10 | 81 | 1016.8 |
| 20260905090904 | 18 | 243 | 9.7 | 12.9 | 0.00 | 0.10 | 0.10 | 81 | 1016.9 |
| 20260905090404 | 17 | 238 | 9.7 | 19.3 | 0.00 | 0.10 | 0.10 | 84 | 1016.9 |
| 20260905085404 | 17 | 237 | 8.0 | 16.1 | 0.00 | 0.10 | 0.10 | 86 | 1017.0 |
| 20260905084904 | 17 | 228 | 4.8 | 14.5 | 0.00 | 0.10 | 0.10 | 87 | 1017.1 |
| 20260905084405 | 17 | 224 | 4.8 | 11.3 | 0.00 | 0.10 | 0.10 | 87 | 1017.1 |
| 20260905083904 | 16 | 219 | 4.8 | 9.7 | 0.00 | 0.10 | 0.10 | 88 | 1017.1 |
| 20260905083404 | 16 | 231 | 4.8 | 8.0 | 0.00 | 0.10 | 0.10 | 88 | 1016.8 |
| 20260905082904 | 16 | 242 | 0.0 | 3.2 | 0.00 | 0.10 | 0.10 | 89 | 1016.5 |
| 20260905082404 | 16 | 242 | 1.6 | 4.8 | 0.00 | 0.10 | 0.10 | 90 | 1016.7 |
| 20260905081905 | 16 | 235 | 1.6 | 9.7 | 0.03 | 0.10 | 0.10 | 90 | 1016.8 |
| 20260905081404 | 16 | 229 | 1.6 | 8.0 | 0.03 | 0.10 | 0.10 | 90 | 1016.7 |
| 20260905080905 | 16 | 229 | 3.2 | 4.8 | 0.03 | 0.10 | 0.10 | 90 | 1016.6 |
| 20260905075904 | 16 | 225 | 1.6 | 4.8 | 0.03 | 0.10 | 0.10 | 90 | 1016.3 |
| 20260905074904 | 16 | 239 | 4.8 | 9.7 | 0.05 | 0.10 | 0.10 | 90 | 1016.5 |
| 20260905074404 | 16 | 244 | 1.6 | 4.8 | 0.05 | 0.10 | 0.10 | 90 | 1015.4 |
| 20260905073904 | 16 | 244 | 3.2 | 4.8 | 0.05 | 0.10 | 0.10 | 91 | 1015.8 |
| 20260905073405 | 16 | 241 | 3.2 | 9.7 | 0.05 | 0.10 | 0.10 | 91 | 1016.1 |
| 20260905072905 | 16 | 223 | 3.2 | 9.7 | 0.05 | 0.10 | 0.10 | 91 | 1016.1 |
| 20260905072404 | 16 | 238 | 1.6 | 4.8 | 0.05 | 0.10 | 0.10 | 90 | 1015.8 |
| 20260905071904 | 16 | 232 | 0.0 | 4.8 | 0.05 | 0.08 | 0.08 | 90 | 1015.8 |
| 20260905071404 | 16 | 232 | 1.6 | 4.8 | 0.05 | 0.08 | 0.08 | 90 | 1016.0 |
| 20260905070904 | 17 | 232 | 3.2 | 4.8 | 0.05 | 0.08 | 0.08 | 90 | 1016.0 |
| 20260905065404 | 17 | 223 | 3.2 | 8.0 | 0.05 | 0.08 | 0.08 | 89 | 1015.7 |
| 20260905064905 | 17 | 245 | 1.6 | 3.2 | 0.05 | 0.05 | 0.05 | 89 | 1015.5 |
| 20260905064404 | 17 | 245 | 0.0 | 0.0 | 0.05 | 0.05 | 0.05 | 89 | 1014.9 |
| 20260905063904 | 17 | 245 | 0.0 | 0.0 | 0.05 | 0.05 | 0.05 | 88 | 1014.9 |
| 20260905063404 | 17 | 245 | 0.0 | 0.0 | 0.05 | 0.05 | 0.05 | 88 | 1015.0 |
| 20260905062904 | 17 | 245 | 0.0 | 0.0 | 0.05 | 0.05 | 0.05 | 88 | 1015.0 |
| 20260905061904 | 17 | 245 | 0.0 | 0.0 | 0.05 | 0.05 | 0.05 | 87 | 1015.3 |
| 20260905061404 | 17 | 245 | 0.0 | 0.0 | 0.05 | 0.05 | 0.05 | 87 | 1015.4 |
| 20260905060904 | 17 | 245 | 0.0 | 0.0 | 0.05 | 0.05 | 0.05 | 87 | 1015.0 |
| 20260905060404 | 17 | 245 | 0.0 | 0.0 | 0.05 | 0.05 | 0.05 | 86 | 1015.0 |
| 20260905055904 | 17 | 245 | 0.0 | 0.0 | 0.05 | 0.05 | 0.05 | 85 | 1015.0 |
| 20260905055405 | 17 | 245 | 0.0 | 1.6 | 0.05 | 0.05 | 0.05 | 85 | 1014.9 |
| 20260905054904 | 17 | 245 | 0.0 | 0.0 | 0.03 | 0.03 | 0.03 | 84 | 1015.4 |
| 20260905054405 | 17 | 245 | 0.0 | 0.0 | 0.03 | 0.03 | 0.03 | 83 | 1015.1 |
| 20260905053904 | 18 | 245 | 0.0 | 3.2 | 0.03 | 0.03 | 0.03 | 83 | 1014.9 |
| 20260905052905 | 18 | 245 | 3.2 | 8.0 | 0.03 | 0.03 | 0.03 | 81 | 1015.1 |
| 20260905051905 | 18 | 251 | 1.6 | 4.8 | 0.00 | 0.00 | 0.00 | 79 | 1015.0 |
| 20260905051404 | 18 | 251 | 1.6 | 4.8 | 0.00 | 0.00 | 0.00 | 78 | 1014.8 |
| 20260905050904 | 18 | 270 | 1.6 | 4.8 | 0.00 | 0.00 | 0.00 | 76 | 1014.8 |
| 20260905050405 | 18 | 289 | 3.2 | 11.3 | 0.00 | 0.00 | 0.00 | 75 | 1014.5 |
| 20260905045904 | 18 | 251 | 1.6 | 8.0 | 0.00 | 0.00 | 0.00 | 75 | 1014.4 |
| 20260905044904 | 18 | 274 | 4.8 | 14.5 | 0.00 | 0.00 | 0.00 | 73 | 1014.4 |
| 20260905044404 | 18 | 294 | 4.8 | 14.5 | 0.00 | 0.00 | 0.00 | 72 | 1014.2 |
| 20260905043904 | 18 | 282 | 3.2 | 16.1 | 0.00 | 0.00 | 0.00 | 72 | 1014.3 |
| 20260905043404 | 18 | 280 | 4.8 | 12.9 | 0.00 | 0.00 | 0.00 | 72 | 1014.1 |
| 20260905042904 | 18 | 279 | 8.0 | 19.3 | 0.00 | 0.00 | 0.00 | 74 | 1013.8 |
| 20260905042405 | 18 | 288 | 4.8 | 16.1 | 0.00 | 0.00 | 0.00 | 75 | 1013.6 |
| 20260905041904 | 18 | 283 | 3.2 | 11.3 | 0.00 | 0.00 | 0.00 | 76 | 1013.5 |
| 20260905041405 | 18 | 298 | 4.8 | 8.0 | 0.00 | 0.00 | 0.00 | 76 | 1013.5 |
| 20260905040904 | 18 | 274 | 1.6 | 4.8 | 0.00 | 0.00 | 0.00 | 76 | 1013.4 |
| 20260905040404 | 18 | 201 | 3.2 | 8.0 | 0.00 | 0.00 | 0.00 | 76 | 1013.2 |
| 20260905035904 | 18 | 269 | 1.6 | 3.2 | 0.00 | 0.00 | 0.00 | 75 | 1013.1 |
| 20260905035406 | 18 | 269 | 1.6 | 4.8 | 0.00 | 0.00 | 0.00 | 75 | 1013.1 |
| 20260905034404 | 19 | 41 | 0.0 | 0.0 | 0.00 | 0.00 | 0.00 | 74 | 1012.6 |
| 20260905033404 | 19 | 41 | 0.0 | 0.0 | 0.00 | 0.00 | 0.00 | 72 | 1012.5 |
| 20260905032904 | 19 | 41 | 0.0 | 0.0 | 0.00 | 0.00 | 0.00 | 72 | 1012.3 |
| 20260905032405 | 20 | 41 | 0.0 | 0.0 | 0.00 | 0.00 | 0.00 | 71 | 1012.4 |
| 20260905031904 | 20 | 41 | 1.6 | 4.8 | 0.00 | 0.00 | 0.00 | 71 | 1012.2 |
| 20260905031405 | 20 | 41 | 0.0 | 0.0 | 0.00 | 0.00 | 0.00 | 70 | 1012.1 |
| 20260905030904 | 20 | 41 | 0.0 | 0.0 | 0.00 | 0.00 | 0.00 | 70 | 1012.3 |
| 20260905030404 | 20 | 41 | 0.0 | 1.6 | 0.00 | 0.00 | 0.00 | 70 | 1012.2 |
| 20260905025904 | 20 | 41 | 0.0 | 3.2 | 0.00 | 0.00 | 0.00 | 69 | 1012.2 |
| 20260905025405 | 20 | 50 | 4.8 | 9.7 | 0.00 | 0.00 | 0.00 | 69 | 1011.8 |
| 20260905024904 | 21 | 35 | 4.8 | 9.7 | 0.00 | 0.00 | 0.00 | 68 | 1011.8 |
| 20260905023904 | 21 | 36 | 3.2 | 9.7 | 0.00 | 0.00 | 0.00 | 68 | 1011.8 |
| 20260905023404 | 21 | 39 | 1.6 | 4.8 | 0.00 | 0.00 | 0.00 | 67 | 1011.7 |
| 20260905022905 | 21 | 49 | 4.8 | 12.9 | 0.00 | 0.00 | 0.00 | 67 | 1011.7 |
| 20260905022404 | 21 | 33 | 8.0 | 16.1 | 0.00 | 0.00 | 0.00 | 67 | 1011.8 |
| 20260905021904 | 21 | 24 | 8.0 | 14.5 | 0.00 | 0.00 | 0.00 | 67 | 1011.8 |
| 20260905021404 | 21 | 357 | 4.8 | 9.7 | 0.00 | 0.00 | 0.00 | 67 | 1011.6 |
| 20260905020905 | 21 | 277 | 6.4 | 16.1 | 0.00 | 0.00 | 0.00 | 67 | 1011.3 |
| 20260905020404 | 21 | 270 | 4.8 | 12.9 | 0.00 | 0.00 | 0.00 | 67 | 1011.2 |
| 20260905015404 | 21 | 281 | 6.4 | 19.3 | 0.00 | 0.00 | 0.00 | 68 | 1011.1 |
| 20260905014904 | 21 | 279 | 6.4 | 19.3 | 0.00 | 0.00 | 0.00 | 69 | 1010.9 |
| 20260905014413 | 21 | 292 | 9.7 | 16.1 | 0.00 | 0.00 | 0.00 | 70 | 1010.8 |
| 20260905013404 | 20 | 224 | 3.2 | 14.5 | 0.00 | 0.00 | 0.00 | 73 | 1010.2 |
| 20260905012904 | 20 | 242 | 9.7 | 16.1 | 0.00 | 0.00 | 0.00 | 73 | 1010.1 |
| 20260905012405 | 20 | 266 | 4.8 | 14.5 | 0.00 | 0.00 | 0.00 | 74 | 1009.9 |
| 20260905011905 | 20 | 324 | 3.2 | 4.8 | 0.00 | 0.00 | 0.00 | 77 | 1009.9 |
| 20260905011404 | 20 | 36 | 1.6 | 3.2 | 0.00 | 0.00 | 0.00 | 77 | 1009.7 |
| 20260905010905 | 20 | 36 | 0.0 | 0.0 | 0.00 | 0.00 | 0.00 | 76 | 1009.6 |
| 20260905010405 | 20 | 36 | 0.0 | 1.6 | 0.00 | 0.00 | 0.00 | 76 | 1009.6 |
| 20260905005904 | 20 | 36 | 0.0 | 1.6 | 0.00 | 0.00 | 0.00 | 76 | 1009.5 |
| 20260905005404 | 21 | 36 | 0.0 | 1.6 | 0.00 | 0.00 | 0.00 | 75 | 1009.5 |
| 20260905004404 | 21 | 36 | 0.0 | 0.0 | 0.00 | 0.00 | 0.00 | 74 | 1009.5 |
| 20260905003904 | 21 | 36 | 0.0 | 0.0 | 0.00 | 0.00 | 0.00 | 74 | 1009.5 |
| 20260905003404 | 21 | 36 | 0.0 | 0.0 | 0.00 | 0.00 | 0.00 | 73 | 1009.4 |
| 20260905002904 | 21 | 36 | 0.0 | 0.0 | 0.00 | 0.00 | 0.00 | 72 | 1009.4 |
| 20260905002404 | 21 | 36 | 0.0 | 0.0 | 0.00 | 0.00 | 0.00 | 72 | 1009.4 |
| 20260905001904 | 21 | 36 | 0.0 | 0.0 | 0.00 | 0.00 | 0.00 | 72 | 1009.5 |
| 20260905001405 | 21 | 36 | 0.0 | 0.0 | 0.00 | 0.00 | 0.00 | 71 | 1009.5 |
| 20260905000405 | 21 | 36 | 0.0 | 4.8 | 0.00 | 0.00 | 0.00 | 71 | 1009.4 |
| 20260904235904 | 21 | 36 | 1.6 | 3.2 | 0.00 | 0.00 | 0.00 | 70 | 1009.4 |
| 20260904235404 | 21 | 36 | 0.0 | 4.8 | 0.00 | 0.00 | 0.00 | 71 | 1009.4 |
| 20260904234404 | 21 | 36 | 3.2 | 4.8 | 0.00 | 0.00 | 0.00 | 71 | 1009.4 |
| 20260904233904 | 21 | 36 | 0.0 | 1.6 | 0.00 | 0.00 | 0.00 | 71 | 1009.5 |
| 20260904233404 | 21 | 36 | 1.6 | 4.8 | 0.00 | 0.00 | 0.00 | 70 | 1009.5 |
| 20260904232904 | 21 | 36 | 3.2 | 8.0 | 0.00 | 0.00 | 0.00 | 70 | 1009.4 |
| 20260904232404 | 21 | 38 | 3.2 | 4.8 | 0.00 | 0.00 | 0.00 | 70 | 1009.4 |
| 20260904231904 | 21 | 38 | 1.6 | 29.0 | 0.00 | 0.00 | 0.00 | 70 | 1009.3 |
| 20260904231404 | 21 | 38 | 3.2 | 4.8 | 0.00 | 0.00 | 0.00 | 70 | 1009.3 |
| 20260904230904 | 21 | 48 | 3.2 | 4.8 | 0.00 | 0.00 | 0.00 | 70 | 1009.3 |
| 20260904225904 | 21 | 57 | 3.2 | 4.8 | 0.00 | 0.00 | 0.00 | 70 | 1009.2 |
| 20260904225404 | 21 | 87 | 3.2 | 4.8 | 0.00 | 0.00 | 0.00 | 70 | 1009.2 |
| 20260904224906 | 21 | 88 | 1.6 | 3.2 | 0.00 | 0.00 | 0.00 | 70 | 1009.3 |
| 20260904224404 | 21 | 88 | 1.6 | 4.8 | 0.00 | 0.00 | 0.00 | 70 | 1009.2 |
| 20260904223405 | 21 | 88 | 1.6 | 4.8 | 0.00 | 0.00 | 0.00 | 70 | 1009.2 |
| 20260904222405 | 21 | 88 | 3.2 | 4.8 | 0.00 | 0.00 | 0.00 | 70 | 1009.1 |
| 20260904221904 | 21 | 89 | 0.0 | 3.2 | 0.00 | 0.00 | 0.00 | 69 | 1009.1 |
| 20260904221405 | 21 | 89 | 3.2 | 4.8 | 0.00 | 0.00 | 0.00 | 69 | 1009.1 |
| 20260904220904 | 21 | 105 | 3.2 | 4.8 | 0.00 | 0.00 | 0.00 | 69 | 1009.2 |
| 20260904220404 | 21 | 115 | 0.0 | 3.2 | 0.00 | 0.00 | 0.00 | 69 | 1009.2 |
| 20260904215904 | 21 | 115 | 3.2 | 3.2 | 0.00 | 0.00 | 0.00 | 70 | 1009.2 |
| 20260904215404 | 21 | 115 | 3.2 | 4.8 | 0.00 | 0.00 | 0.00 | 70 | 1009.2 |
| 20260904214904 | 21 | 133 | 1.6 | 4.8 | 0.00 | 0.00 | 0.00 | 70 | 1009.2 |
| 20260904214404 | 21 | 136 | 1.6 | 3.2 | 0.00 | 0.00 | 0.00 | 70 | 1009.1 |
| 20260904213404 | 21 | 136 | 0.0 | 0.0 | 0.00 | 0.00 | 0.00 | 70 | 1009.2 |
| 20260904212904 | 21 | 136 | 0.0 | 0.0 | 0.00 | 0.00 | 0.00 | 70 | 1009.2 |
| 20260904212404 | 21 | 136 | 0.0 | 0.0 | 0.00 | 0.00 | 0.00 | 69 | 1009.2 |
| 20260904211904 | 21 | 136 | 0.0 | 4.8 | 0.00 | 0.00 | 0.00 | 70 | 1009.3 |
| 20260904211404 | 21 | 136 | 1.6 | 4.8 | 0.00 | 0.00 | 0.00 | 70 | 1009.3 |
| 20260904210905 | 21 | 134 | 0.0 | 4.8 | 0.00 | 0.00 | 0.00 | 70 | 1009.2 |
| 20260904210404 | 21 | 133 | 1.6 | 4.8 | 0.00 | 0.00 | 0.00 | 69 | 1009.3 |
| 20260904205904 | 21 | 101 | 0.0 | 0.0 | 0.00 | 0.00 | 0.00 | 69 | 1009.3 |
| 20260904205404 | 21 | 101 | 0.0 | 1.6 | 0.00 | 0.00 | 0.00 | 68 | 1009.3 |
| 20260904204904 | 21 | 101 | 0.0 | 0.0 | 0.00 | 0.00 | 0.00 | 68 | 1009.4 |
| 20260904204404 | 21 | 101 | 0.0 | 3.2 | 0.00 | 0.00 | 0.00 | 68 | 1009.4 |
| 20260904203905 | 21 | 101 | 1.6 | 3.2 | 0.00 | 0.00 | 0.00 | 67 | 1009.6 |
| 20260904203404 | 21 | 101 | 0.0 | 1.6 | 0.00 | 0.00 | 0.00 | 67 | 1009.6 |
| 20260904202904 | 22 | 101 | 1.6 | 3.2 | 0.00 | 0.00 | 0.00 | 66 | 1009.7 |
| 20260904202405 | 22 | 101 | 1.6 | 4.8 | 0.00 | 0.00 | 0.00 | 66 | 1009.7 |
| 20260904201405 | 22 | 101 | 3.2 | 4.8 | 0.00 | 0.00 | 0.00 | 65 | 1009.8 |
| 20260904200904 | 22 | 206 | 1.6 | 4.8 | 0.00 | 0.00 | 0.00 | 65 | 1009.8 |
| 20260904200404 | 22 | 206 | 1.6 | 3.2 | 0.00 | 0.00 | 0.00 | 64 | 1009.8 |
| 20260904195904 | 22 | 206 | 0.0 | 3.2 | 0.00 | 0.00 | 0.00 | 63 | 1009.9 |
| 20260904195404 | 22 | 206 | 1.6 | 3.2 | 0.00 | 0.00 | 0.00 | 63 | 1010.0 |